Time;durP1;ratioP1;P1;durP2;ratioP2;P2;SDS_P1;SDS_P2;PMS_P1;PMS_P2;Temp;Humidity;BMP_temperature;BMP_pressure;BME280_temperature;BME280_humidity;BME280_pressure;Samples;Min_cycle;Max_cycle;Signal;HPM_P1;HPM_P2
2022/07/08 00:02:14;;;;;;;2.15;1.40;;;;;;;27.05;48.88;100771.31;1749448;82;21031;-89
2022/07/08 00:04:41;;;;;;;2.33;1.30;;;;;;;27.05;48.87;100765.16;1748651;81;21075;-89
2022/07/08 00:07:07;;;;;;;2.72;1.30;;;;;;;27.04;48.85;100765.50;1749342;82;21036;-87
2022/07/08 00:09:40;;;;;;;2.37;1.40;;;;;;;27.04;48.87;100759.92;1748964;82;21044;-88
2022/07/08 00:12:07;;;;;;;2.58;1.40;;;;;;;27.03;48.86;100764.69;1749049;81;21080;-88
2022/07/08 00:14:33;;;;;;;1.62;1.20;;;;;;;27.05;48.88;100771.31;1749397;81;21472;-89
2022/07/08 00:16:59;;;;;;;2.35;1.42;;;;;;;27.03;48.87;100767.48;1749183;82;20945;-89
2022/07/08 00:19:26;;;;;;;2.67;1.45;;;;;;;27.03;48.87;100768.09;1749020;81;21084;-88
2022/07/08 00:21:52;;;;;;;1.65;1.37;;;;;;;27.04;48.86;100762.71;1746786;81;21745;-88
2022/07/08 00:24:19;;;;;;;2.08;1.40;;;;;;;27.03;48.85;100761.89;1743336;80;21020;-89
2022/07/08 00:26:45;;;;;;;2.02;1.40;;;;;;;27.03;48.86;100750.73;1743378;81;22493;-88
2022/07/08 00:29:12;;;;;;;2.58;1.60;;;;;;;27.02;48.87;100749.13;1743822;82;21068;-89
2022/07/08 00:31:38;;;;;;;1.47;1.20;;;;;;;27.03;48.86;100751.34;1743513;82;21102;-88
2022/07/08 00:34:05;;;;;;;1.60;1.25;;;;;;;27.03;48.87;100750.73;1742988;82;21048;-88
2022/07/08 00:36:31;;;;;;;1.90;1.25;;;;;;;27.03;48.85;100746.54;1743541;82;21024;-88
2022/07/08 00:38:58;;;;;;;1.90;1.25;;;;;;;27.02;48.86;100744.94;1743671;81;21806;-88
2022/07/08 00:41:24;;;;;;;1.90;1.30;;;;;;;27.02;48.87;100734.36;1743318;81;20984;-88
2022/07/08 00:43:50;;;;;;;2.25;1.37;;;;;;;27.03;48.86;100733.19;1743369;82;21602;-88
2022/07/08 00:46:17;;;;;;;1.90;1.32;;;;;;;27.02;48.83;100724.59;1743585;82;21088;-88
2022/07/08 00:48:43;;;;;;;1.77;1.30;;;;;;;27.02;48.86;100725.98;1743600;82;21088;-89
2022/07/08 00:51:12;;;;;;;2.45;1.40;;;;;;;27.02;48.86;100725.98;1743771;80;21256;-89
2022/07/08 00:53:42;;;;;;;1.82;1.12;;;;;;;27.01;48.84;100718.19;1743163;82;21115;-88
2022/07/08 00:56:09;;;;;;;;;;;;;;;27.01;48.86;100725.16;1745532;81;21084;-89
2022/07/08 00:58:35;;;;;;;2.27;1.30;;;;;;;27.00;48.85;100727.73;1751015;81;20214;-89
2022/07/08 01:01:02;;;;;;;1.67;1.10;;;;;;;26.99;48.84;100725.31;1753953;81;21026;-88
2022/07/08 01:03:28;;;;;;;1.98;1.20;;;;;;;26.99;48.85;100725.31;1725736;81;21144;-89
2022/07/08 01:05:55;;;;;;;2.92;1.30;;;;;;;26.99;48.87;100727.50;1753514;81;21021;-89
2022/07/08 01:08:22;;;;;;;1.72;1.42;;;;;;;27.00;48.87;100721.33;1753751;81;21054;-88
2022/07/08 01:10:48;;;;;;;1.62;1.22;;;;;;;27.00;48.87;100719.94;1726119;81;21128;-89
2022/07/08 01:13:14;;;;;;;1.65;1.30;;;;;;;26.99;48.87;100714.94;1753379;81;20953;-89
2022/07/08 01:15:41;;;;;;;2.85;1.37;;;;;;;26.98;48.86;100706.36;1753333;81;21207;-88
2022/07/08 01:18:07;;;;;;;1.92;1.37;;;;;;;26.99;48.85;100706.55;1753561;80;21010;-88
2022/07/08 01:20:34;;;;;;;2.10;1.30;;;;;;;26.98;48.88;100706.94;1725034;81;21018;-88
2022/07/08 01:23:06;;;;;;;2.08;1.30;;;;;;;26.99;48.85;100712.75;1753706;81;21538;-88
2022/07/08 01:25:33;;;;;;;4.47;1.42;;;;;;;26.99;48.87;100715.55;1753343;81;21100;-89
2022/07/08 01:27:59;;;;;;;2.10;1.60;;;;;;;26.99;48.87;100721.13;1751547;81;21715;-88
2022/07/08 01:30:26;;;;;;;1.95;1.25;;;;;;;26.98;48.85;100719.50;1753950;81;20970;-88
2022/07/08 01:32:52;;;;;;;2.40;1.52;;;;;;;26.98;48.86;100727.30;1753397;81;21628;-88
2022/07/08 01:35:19;;;;;;;3.27;1.62;;;;;;;26.98;48.86;100725.91;1753654;81;21045;-89
2022/07/08 01:37:52;;;;;;;1.67;1.10;;;;;;;26.99;48.87;100731.69;1754112;81;21065;-88
2022/07/08 01:40:18;;;;;;;2.22;1.30;;;;;;;26.98;48.85;100725.91;1753518;81;21194;-88
2022/07/08 01:42:44;;;;;;;2.40;1.37;;;;;;;26.98;48.84;100723.69;1753687;81;21037;-88
2022/07/08 01:45:11;;;;;;;2.50;1.50;;;;;;;26.97;48.85;100722.88;1753353;81;21004;-88
2022/07/08 01:47:37;;;;;;;1.57;1.27;;;;;;;26.98;48.84;100729.28;1726370;81;21060;-88
2022/07/08 01:50:05;;;;;;;2.92;1.60;;;;;;;26.98;48.83;100725.91;1754365;80;21069;-88
2022/07/08 01:52:31;;;;;;;1.77;1.25;;;;;;;26.97;48.86;100724.27;1750975;81;21150;-88
2022/07/08 01:54:58;;;;;;;1.87;1.60;;;;;;;26.97;48.85;100728.46;1753339;80;21060;-88
2022/07/08 01:57:24;;;;;;;2.95;1.55;;;;;;;26.97;48.84;100727.06;1754007;81;21025;-88
2022/07/08 01:59:50;;;;;;;1.98;1.57;;;;;;;26.97;48.85;100728.46;1701126;81;21107;-88
2022/07/08 02:02:21;;;;;;;1.50;1.20;;;;;;;26.97;48.85;100733.23;1753586;81;21025;-88
2022/07/08 02:04:47;;;;;;;2.72;1.50;;;;;;;26.97;48.85;100726.25;1753984;80;21177;-88
2022/07/08 02:07:14;;;;;;;2.55;1.40;;;;;;;26.96;48.84;100737.19;1753899;80;21540;-88
2022/07/08 02:09:46;;;;;;;2.47;1.30;;;;;;;26.96;48.83;100738.00;1753832;81;21082;-89
2022/07/08 02:12:19;;;;;;;2.55;1.62;;;;;;;26.96;48.84;100742.77;1753520;81;21295;-89
2022/07/08 02:15:02;;;;;;;2.08;1.42;;;;;;;26.96;48.85;100747.78;1753402;81;21108;-89
2022/07/08 02:17:30;;;;;;;3.50;1.47;;;;;;;26.96;48.84;100751.96;1753942;80;21147;-89
2022/07/08 02:19:56;;;;;;;2.85;1.40;;;;;;;26.95;48.81;100755.11;1753501;80;21453;-88
2022/07/08 02:22:23;;;;;;;3.02;1.70;;;;;;;26.95;48.83;100762.90;1753830;81;21089;-89
2022/07/08 02:24:49;;;;;;;3.55;1.40;;;;;;;26.97;48.85;100763.95;1753408;80;21096;-89
2022/07/08 02:27:16;;;;;;;2.33;1.35;;;;;;;26.95;48.84;100760.69;1753693;80;21077;-89
2022/07/08 02:29:44;;;;;;;1.45;1.30;;;;;;;26.96;48.83;100760.92;1752964;81;21459;-88
2022/07/08 02:32:10;;;;;;;1.70;1.32;;;;;;;26.95;48.83;100758.71;1753810;81;21547;-89
2022/07/08 02:34:37;;;;;;;2.72;1.62;;;;;;;26.95;48.81;100758.71;1753430;81;21537;-89
2022/07/08 02:37:03;;;;;;;2.27;1.40;;;;;;;26.94;48.83;100759.91;1753935;81;21061;-89
2022/07/08 02:39:30;;;;;;;3.22;1.50;;;;;;;26.94;48.81;100761.89;1754085;81;21037;-88
2022/07/08 02:41:56;;;;;;;1.80;1.20;;;;;;;26.94;48.80;100759.91;1753776;81;21109;-89
2022/07/08 02:44:23;;;;;;;1.75;1.20;;;;;;;26.94;48.83;100759.91;1753712;81;21050;-88
2022/07/08 02:46:49;;;;;;;1.70;1.15;;;;;;;26.94;48.81;100762.70;1751055;81;21049;-89
2022/07/08 02:49:16;;;;;;;1.85;1.20;;;;;;;26.94;48.82;100763.28;1753602;81;21069;-89
2022/07/08 02:51:42;;;;;;;1.67;1.27;;;;;;;26.94;48.81;100768.87;1753863;80;21307;-88
2022/07/08 02:54:09;;;;;;;2.45;1.52;;;;;;;26.94;48.80;100771.66;1753309;81;21318;-89
2022/07/08 02:56:35;;;;;;;1.60;1.20;;;;;;;26.95;48.81;100768.48;1753124;81;21045;-89
2022/07/08 02:59:03;;;;;;;2.02;1.30;;;;;;;26.94;48.81;100768.87;1753664;81;21575;-89
2022/07/08 03:01:30;;;;;;;1.55;1.20;;;;;;;26.94;48.81;100771.08;1753723;81;21037;-89
2022/07/08 03:03:57;;;;;;;2.55;1.80;;;;;;;26.93;48.81;100771.42;1753179;81;21108;-89
2022/07/08 03:06:23;;;;;;;2.17;1.40;;;;;;;26.94;48.80;100769.68;1753719;81;21035;-89
2022/07/08 03:08:50;;;;;;;3.05;1.60;;;;;;;26.94;48.80;100774.45;1754227;81;21506;-89
2022/07/08 03:11:16;;;;;;;1.77;1.25;;;;;;;26.93;48.79;100776.43;1754538;81;21633;-88
2022/07/08 03:13:43;;;;;;;2.05;1.32;;;;;;;26.93;48.79;100769.45;1754408;81;21507;-88
2022/07/08 03:16:09;;;;;;;2.05;1.30;;;;;;;26.94;48.79;100771.66;1754816;80;21149;-88
2022/07/08 03:18:36;;;;;;;1.65;1.30;;;;;;;26.94;48.78;100768.87;1754670;81;21927;-89
2022/07/08 03:21:07;;;;;;;2.08;1.37;;;;;;;26.92;48.79;100773.41;1754745;81;20997;-89
2022/07/08 03:23:33;;;;;;;1.55;1.22;;;;;;;26.93;48.78;100772.24;1754309;81;21105;-88
2022/07/08 03:26:01;;;;;;;2.55;1.47;;;;;;;26.92;48.79;100773.41;1752369;80;21488;-89
2022/07/08 03:28:28;;;;;;;1.80;1.17;;;;;;;26.94;48.76;100771.66;1751994;81;21029;-88
2022/07/08 03:30:54;;;;;;;2.00;1.57;;;;;;;26.93;48.78;100774.22;1752134;81;21105;-88
2022/07/08 03:33:20;;;;;;;2.05;1.60;;;;;;;26.93;48.78;100782.59;1751069;81;22181;-88
2022/07/08 03:35:47;;;;;;;1.77;1.45;;;;;;;26.92;48.76;100780.38;1751586;81;21530;-88
2022/07/08 03:38:13;;;;;;;2.12;1.42;;;;;;;26.92;48.75;100778.17;1751826;81;21049;-88
2022/07/08 03:43:25;;;;;;;1.77;1.52;;;;;;;26.91;48.76;100778.75;1751208;81;21472;-89
2022/07/08 03:45:52;;;;;;;1.77;1.40;;;;;;;26.91;48.75;100775.97;1751091;81;21037;-88
2022/07/08 03:48:18;;;;;;;2.02;1.37;;;;;;;26.91;48.76;100786.32;1751461;81;21053;-88
2022/07/08 03:50:44;;;;;;;2.70;1.40;;;;;;;26.92;48.75;100787.95;1751309;81;21496;-89
2022/07/08 03:53:11;;;;;;;2.40;1.22;;;;;;;26.91;48.74;100785.73;1750673;81;21041;-88
2022/07/08 03:55:37;;;;;;;2.45;1.50;;;;;;;26.91;48.74;100788.53;1751309;81;21146;-89
2022/07/08 03:58:04;;;;;;;2.62;1.40;;;;;;;26.92;48.76;100783.76;1751533;81;21030;-89
2022/07/08 04:00:31;;;;;;;1.90;1.30;;;;;;;26.91;48.74;100788.53;1751033;81;21056;-89
2022/07/08 04:02:57;;;;;;;2.33;1.50;;;;;;;26.91;48.74;100789.11;1750929;81;21086;-89
2022/07/08 04:05:24;;;;;;;2.08;1.40;;;;;;;26.92;48.74;100787.95;1751245;81;21128;-88
2022/07/08 04:07:50;;;;;;;2.47;1.62;;;;;;;26.91;48.75;100794.11;1750949;81;21197;-89
2022/07/08 04:10:17;;;;;;;2.25;1.50;;;;;;;26.92;48.73;100797.72;1726744;83;21012;-88
2022/07/08 04:12:43;;;;;;;2.60;1.52;;;;;;;26.91;48.74;100790.51;1727874;82;21722;-89
2022/07/08 04:15:10;;;;;;;2.02;1.50;;;;;;;26.91;48.74;100798.88;1727827;83;21056;-88
2022/07/08 04:17:36;;;;;;;1.62;1.50;;;;;;;26.92;48.74;100794.92;1727967;82;21063;-88
2022/07/08 04:20:04;;;;;;;2.25;1.40;;;;;;;26.92;48.74;100790.73;1719830;83;21087;-88
2022/07/08 04:22:31;;;;;;;2.37;1.30;;;;;;;26.91;48.73;100788.53;1718958;83;21479;-88
2022/07/08 04:24:57;;;;;;;1.87;1.25;;;;;;;26.91;48.71;100794.11;1716106;83;21036;-89
2022/07/08 04:27:29;;;;;;;1.80;1.40;;;;;;;26.91;48.71;100795.51;1706642;84;21154;-88
2022/07/08 04:29:56;;;;;;;2.70;1.47;;;;;;;26.92;48.72;100796.32;1706705;84;21060;-88
2022/07/08 04:32:22;;;;;;;2.10;1.40;;;;;;;26.91;48.70;100799.70;1706533;84;21605;-89
2022/07/08 04:34:50;;;;;;;2.70;1.50;;;;;;;26.92;48.71;100798.53;1706400;84;20986;-88
2022/07/08 04:37:16;;;;;;;3.52;1.60;;;;;;;26.91;48.70;100799.70;1707626;83;21061;-89
2022/07/08 04:39:43;;;;;;;2.02;1.35;;;;;;;26.91;48.69;100806.67;1707020;83;21010;-88
2022/07/08 04:42:09;;;;;;;2.67;1.52;;;;;;;26.92;48.70;100806.09;1706815;83;21069;-88
2022/07/08 04:44:42;;;;;;;2.10;1.42;;;;;;;26.91;48.71;100804.47;1742987;81;21420;-88
2022/07/08 04:47:08;;;;;;;2.65;2.15;;;;;;;26.91;48.70;100815.05;1743138;81;21166;-90
2022/07/08 04:50:03;;;;;;;4.45;2.37;;;;;;;26.90;48.68;100809.27;1740818;81;21087;-90
2022/07/08 04:52:29;;;;;;;8.73;2.75;;;;;;;26.85;48.70;100810.11;1733341;82;21554;-89
2022/07/08 04:54:56;;;;;;;9.05;2.45;;;;;;;26.77;48.72;100809.09;1749778;81;21107;-89
2022/07/08 04:57:23;;;;;;;8.20;2.90;;;;;;;26.72;48.77;100814.36;1731424;81;21119;-89
2022/07/08 04:59:50;;;;;;;5.83;2.67;;;;;;;26.69;48.83;100808.08;1751340;81;21115;-88
2022/07/08 05:02:17;;;;;;;6.60;2.30;;;;;;;26.65;48.86;100807.17;1756082;81;21629;-87
2022/07/08 05:04:43;;;;;;;7.45;2.87;;;;;;;26.57;48.99;100808.16;1737458;80;21068;-86
2022/07/08 05:07:10;;;;;;;5.72;2.60;;;;;;;26.55;48.96;100808.30;1749773;82;21071;-88
2022/07/08 05:09:36;;;;;;;5.42;2.22;;;;;;;26.53;48.92;100809.23;1750134;81;21059;-89
2022/07/08 05:12:04;;;;;;;5.58;2.40;;;;;;;26.50;48.90;100805.77;1750262;81;21040;-88
2022/07/08 05:14:33;;;;;;;4.75;2.25;;;;;;;26.46;48.90;100800.68;1687574;84;21105;-89
2022/07/08 05:16:59;;;;;;;2.62;2.10;;;;;;;26.42;48.98;100794.20;1686441;84;21613;-89
2022/07/08 05:19:26;;;;;;;5.97;2.52;;;;;;;26.41;48.99;100786.98;1692966;84;21098;-89
2022/07/08 05:21:52;;;;;;;5.67;2.65;;;;;;;26.38;48.98;100782.95;1670185;85;21827;-88
2022/07/08 05:24:19;;;;;;;3.65;2.30;;;;;;;26.34;48.97;100788.44;1692427;84;21016;-89
2022/07/08 05:26:45;;;;;;;5.50;2.40;;;;;;;26.32;49.00;100791.34;1669760;84;21580;-89
2022/07/08 05:29:14;;;;;;;3.58;1.95;;;;;;;26.34;49.01;100784.83;1719493;81;21067;-88
2022/07/08 05:31:56;;;;;;;4.92;2.10;;;;;;;26.34;49.00;100783.44;1720176;81;21454;-88
2022/07/08 05:34:19;;;;;;;4.12;2.65;;;;;;;26.35;49.02;100794.83;1681502;83;21143;-88
2022/07/08 05:36:51;;;;;;;4.67;2.37;;;;;;;26.36;49.01;100802.82;1697953;84;21060;-89
2022/07/08 05:39:18;;;;;;;3.87;2.77;;;;;;;26.35;49.00;100801.19;1687558;83;21090;-89
2022/07/08 05:41:44;;;;;;;5.95;2.95;;;;;;;26.35;48.96;100802.58;1669694;85;21091;-88
2022/07/08 05:44:11;;;;;;;5.83;2.60;;;;;;;26.32;48.92;100799.70;1734580;80;21096;-89
2022/07/08 05:46:37;;;;;;;4.20;2.62;;;;;;;26.28;48.91;100797.41;1746828;81;21065;-88
2022/07/08 05:49:04;;;;;;;4.33;2.25;;;;;;;26.24;48.97;100806.25;1745599;80;21334;-88
2022/07/08 05:51:36;;;;;;;4.08;2.17;;;;;;;26.22;49.01;100803.03;1748749;82;21126;-88
2022/07/08 05:54:03;;;;;;;3.22;2.42;;;;;;;26.23;49.04;100805.44;1749881;82;21487;-89
2022/07/08 05:56:29;;;;;;;4.75;2.45;;;;;;;26.21;49.02;100799.42;1750115;82;21056;-89
2022/07/08 05:58:56;;;;;;;4.78;2.55;;;;;;;26.20;48.98;100801.98;1720533;81;22399;-89
2022/07/08 06:01:22;;;;;;;3.67;2.33;;;;;;;26.19;48.93;100805.08;1720515;83;21087;-89
2022/07/08 06:03:49;;;;;;;5.17;2.60;;;;;;;26.15;48.98;100797.20;1720144;83;21056;-88
2022/07/08 06:06:15;;;;;;;6.42;3.20;;;;;;;26.13;49.01;100799.55;1740355;81;21546;-88
2022/07/08 06:08:48;;;;;;;4.55;2.58;;;;;;;26.14;49.02;100799.78;1749386;81;21044;-88
2022/07/08 06:11:15;;;;;;;6.08;3.33;;;;;;;26.13;49.07;100798.16;1749036;81;21720;-89
2022/07/08 06:13:41;;;;;;;27.02;4.10;;;;;;;26.14;49.03;100798.39;1747379;81;21087;-88
2022/07/08 06:16:08;;;;;;;25.68;4.80;;;;;;;26.08;49.06;100797.82;1732622;81;21067;-89
2022/07/08 06:18:34;;;;;;;7.42;3.40;;;;;;;26.09;49.13;100798.06;1719577;83;21547;-88
2022/07/08 06:21:01;;;;;;;9.03;3.72;;;;;;;26.11;49.15;100796.29;1729261;80;21132;-88
2022/07/08 06:23:27;;;;;;;9.95;3.30;;;;;;;26.13;49.09;100796.18;1749571;81;21773;-89
2022/07/08 06:25:54;;;;;;;5.12;3.25;;;;;;;26.13;49.10;100793.39;1726139;81;22027;-89
2022/07/08 06:28:26;;;;;;;4.53;3.12;;;;;;;26.12;49.10;100795.94;1722360;80;21521;-88
2022/07/08 06:31:03;;;;;;;5.95;3.15;;;;;;;26.12;49.12;100788.97;1737883;80;21036;-89
2022/07/08 06:33:35;;;;;;;4.72;2.80;;;;;;;26.15;49.04;100791.62;1733296;81;21075;-89
2022/07/08 06:36:01;;;;;;;3.95;2.87;;;;;;;26.16;48.96;100788.48;1726736;81;21111;-89
2022/07/08 06:38:28;;;;;;;3.22;2.50;;;;;;;26.15;48.91;100788.25;1732720;81;21047;-89
2022/07/08 06:40:54;;;;;;;6.05;2.87;;;;;;;26.16;48.93;100787.09;1724843;82;21071;-90
2022/07/08 06:43:21;;;;;;;3.17;1.90;;;;;;;26.15;48.81;100784.07;1751612;80;21051;-89
2022/07/08 06:45:47;;;;;;;5.35;2.42;;;;;;;26.16;48.80;100787.67;1750076;78;21056;-89
2022/07/08 06:48:13;;;;;;;2.77;1.87;;;;;;;26.17;48.62;100787.33;1738270;81;21183;-90
2022/07/08 06:50:40;;;;;;;4.65;2.00;;;;;;;26.16;48.47;100782.91;1748767;80;22217;-89
2022/07/08 06:53:07;;;;;;;7.12;2.08;;;;;;;26.16;48.37;100782.91;1729870;81;21541;-92
2022/07/08 06:55:33;;;;;;;2.30;1.82;;;;;;;26.21;48.34;100783.27;1738775;80;21016;-90
2022/07/08 06:58:00;;;;;;;2.98;2.08;;;;;;;26.22;48.10;100786.30;1738486;81;21666;-88
2022/07/08 07:00:27;;;;;;;2.95;2.20;;;;;;;26.25;47.96;100791.15;1749972;81;21101;-87
2022/07/08 07:02:54;;;;;;;8.63;2.10;;;;;;;26.26;47.82;100792.78;1749537;81;21067;-87
2022/07/08 07:05:21;;;;;;;6.90;2.08;;;;;;;26.28;47.65;100787.64;1739734;81;21023;-87
2022/07/08 07:07:47;;;;;;;4.85;2.37;;;;;;;26.27;47.48;100791.59;1738558;80;21090;-88
2022/07/08 07:10:13;;;;;;;4.10;2.20;;;;;;;26.26;47.37;100789.99;1747052;80;21055;-88
2022/07/08 07:12:40;;;;;;;5.30;2.20;;;;;;;26.23;47.27;100781.73;1747231;80;21154;-88
2022/07/08 07:15:07;;;;;;;3.40;2.05;;;;;;;26.23;47.37;100782.31;1748695;81;21070;-86
2022/07/08 07:17:34;;;;;;;6.10;1.98;;;;;;;26.24;47.21;100779.18;1744606;80;21070;-86
2022/07/08 07:20:00;;;;;;;5.85;2.12;;;;;;;26.24;47.06;100779.18;1745367;80;21094;-87
2022/07/08 07:22:27;;;;;;;5.00;1.65;;;;;;;26.24;46.96;100779.18;1744705;80;21099;-87
2022/07/08 07:24:53;;;;;;;3.37;1.87;;;;;;;26.27;46.81;100789.61;1743663;81;21706;-86
2022/07/08 07:27:20;;;;;;;3.98;1.80;;;;;;;26.28;46.58;100780.67;1737064;81;21086;-87
2022/07/08 07:29:46;;;;;;;2.70;1.70;;;;;;;26.28;46.34;100780.67;1745292;81;21075;-87
2022/07/08 07:32:13;;;;;;;3.05;1.90;;;;;;;26.27;46.12;100778.45;1740494;80;21122;-86
2022/07/08 07:34:40;;;;;;;2.65;1.70;;;;;;;26.26;45.96;100790.80;1739371;80;21044;-87
2022/07/08 07:37:07;;;;;;;2.77;1.80;;;;;;;26.28;45.71;100782.06;1739211;81;21106;-89
2022/07/08 07:39:34;;;;;;;3.42;1.72;;;;;;;26.25;45.38;100782.78;1741144;80;21135;-87
2022/07/08 07:42:07;;;;;;;4.37;1.62;;;;;;;26.25;45.30;100781.39;1743606;81;21618;-87
2022/07/08 07:44:32;;;;;;;3.72;1.47;;;;;;;26.23;45.12;100775.34;1726587;81;21688;-88
2022/07/08 07:47:04;;;;;;;3.65;1.50;;;;;;;26.23;44.89;100766.39;1743269;80;21077;-89
2022/07/08 07:49:30;;;;;;;2.70;1.85;;;;;;;26.25;44.85;100775.23;1743843;81;22906;-89
2022/07/08 07:51:57;;;;;;;2.55;1.62;;;;;;;26.25;44.68;100773.84;1747179;81;21398;-87
2022/07/08 07:54:23;;;;;;;2.25;1.52;;;;;;;26.26;44.60;100774.07;1742746;80;21102;-87
2022/07/08 07:56:50;;;;;;;4.33;1.80;;;;;;;26.27;44.47;100779.04;1742169;80;21079;-88
2022/07/08 07:59:16;;;;;;;2.77;1.60;;;;;;;26.26;44.29;100774.07;1743281;80;21091;-87
2022/07/08 08:01:43;;;;;;;4.62;1.75;;;;;;;26.26;44.19;100774.66;1741963;80;21499;-87
2022/07/08 08:04:10;;;;;;;3.58;1.47;;;;;;;26.26;44.10;100770.47;1743250;80;21135;-88
2022/07/08 08:06:36;;;;;;;4.17;1.75;;;;;;;26.27;44.01;100769.27;1742287;80;21132;-87
2022/07/08 08:09:03;;;;;;;5.90;1.50;;;;;;;26.29;43.92;100768.35;1743660;81;21103;-87
2022/07/08 08:11:29;;;;;;;2.58;1.57;;;;;;;26.27;43.83;100770.09;1743411;81;21075;-87
2022/07/08 08:13:56;;;;;;;4.10;1.57;;;;;;;26.28;43.70;100772.30;1741207;80;21835;-87
2022/07/08 08:16:22;;;;;;;3.58;1.40;;;;;;;26.28;43.59;100762.53;1740043;80;21068;-87
2022/07/08 08:18:49;;;;;;;2.72;1.70;;;;;;;26.26;43.56;100768.49;1741547;80;21608;-88
2022/07/08 08:21:15;;;;;;;1.90;1.40;;;;;;;26.28;43.52;100765.33;1743428;81;21578;-89
2022/07/08 08:23:41;;;;;;;2.22;1.75;;;;;;;26.28;43.47;100770.33;1734775;82;21562;-88
2022/07/08 08:26:08;;;;;;;2.37;1.50;;;;;;;26.28;43.48;100756.38;1747977;80;21589;-87
2022/07/08 08:28:34;;;;;;;2.30;1.55;;;;;;;26.31;43.47;100757.62;1740449;82;21630;-88
2022/07/08 08:31:01;;;;;;;3.37;1.65;;;;;;;26.30;43.43;100751.27;1738693;81;21138;-89
2022/07/08 08:33:27;;;;;;;2.72;1.60;;;;;;;26.32;43.42;100754.49;1722678;82;21110;-89
2022/07/08 08:35:54;;;;;;;3.50;1.82;;;;;;;26.33;43.33;100758.09;1710400;83;21485;-88
2022/07/08 08:38:24;;;;;;;1.98;1.40;;;;;;;26.32;43.27;100751.70;1717273;82;21149;-88
2022/07/08 08:40:50;;;;;;;3.15;1.55;;;;;;;26.33;43.20;100751.12;1739603;81;21151;-88
2022/07/08 08:43:17;;;;;;;4.62;1.55;;;;;;;26.34;43.32;100753.56;1726679;82;21068;-89
2022/07/08 08:45:44;;;;;;;2.83;1.62;;;;;;;26.34;43.16;100745.78;1727986;81;21118;-88
2022/07/08 08:48:10;;;;;;;4.05;1.72;;;;;;;26.35;43.14;100746.02;1736848;81;21780;-88
2022/07/08 08:50:53;;;;;;;3.37;1.52;;;;;;;26.35;43.08;100736.25;1717660;82;21259;-89
2022/07/08 08:53:28;;;;;;;1.50;1.40;;;;;;;26.37;43.04;100747.84;1712273;81;21132;-88
2022/07/08 08:55:55;;;;;;;3.90;1.55;;;;;;;26.35;42.97;100744.62;1735552;81;21080;-88
2022/07/08 08:58:22;;;;;;;3.52;1.70;;;;;;;26.36;43.03;100747.61;1726409;82;21578;-89
2022/07/08 09:00:54;;;;;;;3.25;1.50;;;;;;;26.36;43.00;100743.42;1734192;82;21333;-89
2022/07/08 09:03:21;;;;;;;1.67;1.42;;;;;;;26.36;42.94;100735.06;1739383;82;21044;-89
2022/07/08 09:05:48;;;;;;;4.05;1.72;;;;;;;26.38;42.96;100734.71;1738979;81;21091;-89
2022/07/08 09:08:14;;;;;;;3.70;1.50;;;;;;;26.39;42.91;100730.77;1740567;82;21096;-88
2022/07/08 09:10:41;;;;;;;3.70;1.50;;;;;;;26.39;42.87;100727.39;1728482;82;21064;-90
2022/07/08 09:13:12;;;;;;;2.87;1.70;;;;;;;26.39;42.82;100732.16;1731862;82;21071;-89
2022/07/08 09:15:42;;;;;;;3.85;1.50;;;;;;;26.39;42.90;100732.97;1736921;80;21741;-89
2022/07/08 09:18:17;;;;;;;1.87;1.50;;;;;;;26.37;42.83;100717.16;1740408;81;21059;-88
2022/07/08 09:20:48;;;;;;;3.15;1.45;;;;;;;26.38;42.83;100719.37;1730721;82;21048;-89
2022/07/08 09:23:26;;;;;;;3.80;1.40;;;;;;;26.38;42.85;100724.37;1731175;82;21119;-89
2022/07/08 09:25:55;;;;;;;3.33;1.55;;;;;;;26.39;42.82;100722.39;1725176;81;21083;-89
2022/07/08 09:28:39;;;;;;;2.75;1.47;;;;;;;26.38;42.78;100717.97;1721360;81;21123;-89
2022/07/08 09:31:08;;;;;;;3.55;1.37;;;;;;;26.40;42.75;100719.80;1732866;82;21059;-89
2022/07/08 09:33:35;;;;;;;3.58;1.52;;;;;;;26.42;42.84;100722.48;1679767;83;21440;-89
2022/07/08 09:36:03;;;;;;;2.40;1.37;;;;;;;26.42;42.90;100720.27;1737950;81;21539;-88
2022/07/08 09:38:35;;;;;;;3.00;1.70;;;;;;;26.42;42.99;100723.88;1737724;81;21072;-89
2022/07/08 09:41:05;;;;;;;3.20;1.70;;;;;;;26.45;43.00;100725.13;1719177;81;22022;-89
2022/07/08 09:43:33;;;;;;;1.98;1.50;;;;;;;26.46;43.07;100720.59;1743819;81;21068;-89
2022/07/08 09:46:07;;;;;;;6.00;1.70;;;;;;;26.48;43.01;100721.02;1749239;81;21121;-89
2022/07/08 09:48:34;;;;;;;1.90;1.40;;;;;;;26.50;43.02;100719.28;1745344;81;21023;-89
2022/07/08 09:51:07;;;;;;;4.55;1.50;;;;;;;26.51;43.01;100714.74;1747112;81;21063;-89
2022/07/08 09:53:30;;;;;;;2.95;1.72;;;;;;;26.53;42.99;100713.78;1724729;81;21506;-90
2022/07/08 09:55:57;;;;;;;2.25;1.47;;;;;;;26.55;42.97;100714.25;1752532;81;21758;-89
2022/07/08 09:58:25;;;;;;;3.30;1.40;;;;;;;26.57;42.92;100711.08;1753169;81;21040;-90
2022/07/08 10:00:53;;;;;;;2.60;1.57;;;;;;;26.57;42.85;100707.70;1751719;81;21119;-89
2022/07/08 10:03:20;;;;;;;1.90;1.30;;;;;;;26.59;42.83;100698.41;1738333;80;21146;-89
2022/07/08 10:05:46;;;;;;;3.87;1.47;;;;;;;26.62;42.76;100691.28;1751401;81;21179;-89
2022/07/08 10:08:13;;;;;;;4.92;1.57;;;;;;;26.63;42.74;100688.14;1752256;81;21064;-86
2022/07/08 10:10:50;;;;;;;2.10;1.50;;;;;;;26.64;42.71;100696.73;1749374;81;21056;-89
2022/07/08 10:13:20;;;;;;;3.45;1.40;;;;;;;26.65;42.62;100692.75;1747347;81;21075;-88
2022/07/08 10:15:49;;;;;;;1.90;1.37;;;;;;;26.68;42.54;100693.45;1723250;83;21518;-90
2022/07/08 10:18:25;;;;;;;4.20;1.52;;;;;;;26.70;42.46;100686.09;1732832;81;21309;-89
2022/07/08 10:20:54;;;;;;;3.20;1.47;;;;;;;26.72;42.30;100685.16;1752574;81;21060;-89
2022/07/08 10:23:44;;;;;;;4.03;1.50;;;;;;;26.72;42.11;100687.36;1709296;83;21114;-88
2022/07/08 10:26:11;;;;;;;3.58;1.37;;;;;;;26.71;42.06;100676.55;1724303;82;21086;-89
2022/07/08 10:28:39;;;;;;;3.22;1.67;;;;;;;26.70;42.13;100670.16;1734877;82;21872;-89
2022/07/08 10:31:23;;;;;;;1.87;1.50;;;;;;;26.71;42.18;100670.39;1739734;82;21176;-88
2022/07/08 10:33:56;;;;;;;1.75;1.42;;;;;;;26.72;42.11;100664.22;1737368;82;21041;-90
2022/07/08 10:36:22;;;;;;;2.65;1.40;;;;;;;26.73;41.90;100664.45;1735825;82;21060;-89
2022/07/08 10:38:50;;;;;;;4.72;1.62;;;;;;;26.74;41.85;100657.67;1717591;82;21071;-89
2022/07/08 10:41:25;;;;;;;2.92;1.40;;;;;;;26.75;41.84;100663.48;1724769;82;21119;-89
2022/07/08 10:43:57;;;;;;;3.37;1.50;;;;;;;26.75;41.84;100653.14;1734451;82;22008;-89
2022/07/08 10:46:27;;;;;;;2.95;1.35;;;;;;;26.76;41.82;100651.97;1736900;82;21033;-89
2022/07/08 10:48:58;;;;;;;3.08;1.35;;;;;;;26.77;41.79;100660.58;1710426;83;21146;-90
2022/07/08 10:51:30;;;;;;;3.35;1.55;;;;;;;26.77;41.78;100650.00;1682796;84;21141;-89
2022/07/08 10:54:01;;;;;;;4.47;1.37;;;;;;;26.78;41.88;100652.98;1737304;82;21687;-90
2022/07/08 10:56:53;;;;;;;2.17;1.30;;;;;;;26.78;41.79;100639.03;1734941;81;21572;-89
2022/07/08 10:59:32;;;;;;;3.72;1.50;;;;;;;26.79;41.68;100636.47;1744356;81;21039;-88
2022/07/08 11:02:09;;;;;;;2.77;1.60;;;;;;;26.80;41.64;100632.52;1728209;80;21110;-89
2022/07/08 11:04:41;;;;;;;3.35;1.35;;;;;;;26.80;41.58;100631.12;1720134;83;21071;-89
2022/07/08 11:07:22;;;;;;;3.50;1.52;;;;;;;26.79;41.55;100628.91;1725250;82;21092;-90
2022/07/08 11:10:08;;;;;;;1.77;1.30;;;;;;;26.82;41.53;100630.15;1747886;81;21191;-89
2022/07/08 11:12:39;;;;;;;3.02;1.40;;;;;;;26.82;41.47;100632.36;1745731;81;21159;-89
2022/07/08 11:15:12;;;;;;;2.47;1.55;;;;;;;26.83;41.40;100636.77;1739568;81;21053;-90
2022/07/08 11:17:40;;;;;;;2.65;1.50;;;;;;;26.83;41.36;100629.80;1740218;82;21055;-88
2022/07/08 11:20:13;;;;;;;3.70;1.50;;;;;;;26.82;41.25;100632.36;1740306;82;21089;-89
2022/07/08 11:22:42;;;;;;;1.65;1.40;;;;;;;26.81;41.26;100632.74;1740069;80;21301;-89
2022/07/08 11:25:14;;;;;;;1.82;1.30;;;;;;;26.82;41.26;100634.34;1740268;82;21069;-90
2022/07/08 11:27:41;;;;;;;2.27;1.70;;;;;;;26.83;41.41;100623.41;1731161;82;21035;-88
2022/07/08 11:30:16;;;;;;;1.70;1.40;;;;;;;26.85;41.41;100625.29;1710029;83;21513;-88
2022/07/08 11:32:46;;;;;;;2.10;1.10;;;;;;;26.86;41.36;100628.31;1719224;82;21104;-90
2022/07/08 11:35:13;;;;;;;;;;;;;;;26.87;41.30;100621.53;1720056;80;21141;-89